Nearby METAR Reports - 80 Mile Radius
Meteorological Terminal Air Report (METAR)


KBWI - Balto/Wash Intl Airport, Maryland
Distance from station: S 5mi, 8km
Updated: Sat, 18-Nov-2017 11:54am EST
Overcast
Overcast
 Wind from SSW
Wind: SSW 10 mph , 17 km/h
Temperature: 55°F , 13°C
Dew Point: 36°F , 2°C
Humidity: 47%
Barometer: 29.75 inHg , 1007.5 hPa
Clouds: Overcast
Visibility: 10 miles , 16 km
Cloud details: Mostly Cloudy 9500 ft
Mostly Cloudy 12000 ft
Overcast 25000 ft
2017/11/18 16:54 KBWI 181654Z 20009KT 10SM BKN095 BKN120 OVC250 13/02 A2975 RMK AO2 SLP076 T01280022
KDMH - Baltimore/Dwntwn, Maryland
Distance from station: NE 5mi, 9km
Updated: Sat, 18-Nov-2017 11:54am EST

 
Temperature: 54°F , 12°C
Dew Point: 37°F , 3°C
Humidity: 54%
Barometer: 29.77 inHg , 1008.1 hPa
2017/11/18 16:54 KDMH 181654Z AUTO 12/03 A2977 RMK AO1 SLP080 T01170028
KFME - Fort Meade/Tipton AAF, Maryland
Distance from station: SSW 11mi, 18km
Updated: Sat, 18-Nov-2017 12:06pm EST
Clear
Clear
 Wind from SSW
Wind: SSW 15 mph , 24 km/h, Gust: 18 mph , 30 km/h
Temperature: 55°F , 13°C
Dew Point: 36°F , 2°C
Humidity: 47%
Barometer: 29.77 inHg , 1008.1 hPa
Clouds: Clear
Visibility: 10 miles , 16 km
2017/11/18 17:06 KFME 181706Z AUTO 21013G16KT 170V240 10SM CLR 13/02 A2977 RMK AO1
 
KMTN - Balto/Martin State Airport, Maryland
Distance from station: ENE 16mi, 26km
Updated: Sat, 18-Nov-2017 11:45am EST
Mostly Cloudy
Mostly Cloudy
 Wind from ESE
Wind: ESE 10 mph , 17 km/h
Temperature: 54°F , 12°C
Dew Point: 43°F , 6°C
Humidity: 67%
Barometer: 29.79 inHg , 1008.8 hPa
Clouds: Mostly Cloudy
Visibility: 10 miles , 16 km
Cloud details: Mostly Cloudy 9500 ft
Mostly Cloudy 12000 ft
2017/11/18 16:45 KMTN 181645Z 12009KT 10SM BKN095 BKN120 12/06 A2979
KCGS - College Park Airport, Maryland
Distance from station: SSW 21mi, 34km
Updated: Sat, 18-Nov-2017 12:06pm EST
Clear
Clear
 Wind from S
Wind: S 8 mph , 13 km/h
Temperature: 55°F , 13°C
Dew Point: 36°F , 2°C
Humidity: 47%
Barometer: 29.74 inHg , 1007.1 hPa
Clouds: Clear
Visibility: 10 miles , 16 km
2017/11/18 17:06 KCGS 181706Z AUTO 18007KT 10SM CLR 13/02 A2974 RMK AO1 T01260021
KNAK - Annapolis/Naval Academy, Maryland
Distance from station: SE 21mi, 34km
Updated: Fri, 17-Nov-2017 8:54pm EST
NOT Current
Clear
Clear
 Wind from calm
Wind: Calm
Temperature: 41°F , 5°C
Dew Point: 37°F , 3°C
Humidity: 87%
Barometer: 30.13 inHg , 1020.3 hPa
Clouds: Clear
Visibility: 10 miles , 16 km
2017/11/18 01:54 KNAK 180154Z AUTO 00000KT 10SM CLR 05/03 A3013 RMK AO2 SLP203 T00500028
 
KGAI - Gaithersburg/Montgomery Co Airpark, Maryland
Distance from station: W 26mi, 41km
Updated: Sat, 18-Nov-2017 11:56am EST
Mostly Cloudy
Mostly Cloudy
 Wind from SSW
Wind: SSW 10 mph , 17 km/h
Temperature: 54°F , 12°C
Dew Point: 36°F , 2°C
Humidity: 51%
Barometer: 29.73 inHg , 1006.8 hPa
Clouds: Mostly Cloudy
Visibility: 10 miles , 16 km
Cloud details: Mostly Cloudy 10000 ft
2017/11/18 16:56 KGAI 181656Z AUTO 21009KT 10SM BKN100 12/02 A2973 RMK AO2 PRESFR SLP099 T01170022
KW29 - Stevensville/Bay Bridge Airport, Maryland
Distance from station: SE 26mi, 42km
Updated: Sat, 18-Nov-2017 12:00pm EST
Mostly Cloudy
Mostly Cloudy
 Wind from S
Wind: S 17 mph , 28 km/h
Temperature: 54°F , 12°C
Dew Point: 39°F , 4°C
Humidity: 58%
Barometer: 29.77 inHg , 1008.1 hPa
Clouds: Mostly Cloudy
Visibility: 10 miles , 16 km
Cloud details: Mostly Cloudy 7000 ft
2017/11/18 17:00 KW29 181700Z AUTO 18015KT 10SM BKN070 12/04 A2977 RMK AO2
KDMW - Carroll Co Regional Airport, Maryland
Distance from station: NNW 30mi, 48km
Updated: Sat, 18-Nov-2017 12:05pm EST
Mostly Cloudy
Mostly Cloudy
 Wind from ESE
Wind: ESE 6 mph , 9 km/h
Temperature: 43°F , 6°C
Wind Chill: 39°F , 4°C
Dew Point: 39°F , 4°C
Humidity: 87%
Barometer: 29.73 inHg , 1006.8 hPa
Clouds: Mostly Cloudy
Visibility: 10 miles , 16 km
Cloud details: Mostly Cloudy 6500 ft
Mostly Cloudy 9000 ft
2017/11/18 17:05 KDMW 181705Z AUTO 12005KT 10SM BKN065 BKN090 06/04 A2973 RMK AO2
 
KADW - Andrews AFB, Maryland
Distance from station: SSW 30mi, 49km
Updated: Sat, 18-Nov-2017 11:56am EST
Few Clouds
Few Clouds
 Wind from S
Wind: S 18 mph , 30 km/h, Gust: 25 mph , 41 km/h
Temperature: 55°F , 13°C
Dew Point: 36°F , 2°C
Humidity: 47%
Barometer: 29.74 inHg , 1007.1 hPa
Clouds: Few Clouds
Visibility: 10 miles , 16 km
Cloud details: Few Clouds 15000 ft
2017/11/18 16:56 KADW 181656Z AUTO 19016G22KT 10SM FEW150 13/02 A2974 RMK AO2 SLP079 T01260022 $
KAPG - Aberdeen/Phillip AAF, Maryland
Distance from station: ENE 32mi, 52km
Updated: Sat, 18-Nov-2017 11:58am EST
Mostly Cloudy
Mostly Cloudy
 Wind from SSW
Wind: SSW 13 mph , 20 km/h
Temperature: 52°F , 11°C
Dew Point: 39°F , 4°C
Humidity: 62%
Barometer: 29.79 inHg , 1008.8 hPa
Clouds: Mostly Cloudy
Visibility: 10 miles , 16 km
Cloud details: Partly Cloudy 7500 ft
Mostly Cloudy 9500 ft
2017/11/18 16:58 KAPG 181658Z AUTO 20011KT 10SM SCT075 BKN095 11/04 A2979 RMK AO2 RAE00 SLP091 P0000 T01100035 $
KDCA - Washington/Natl Airport, Washington D.C.
Distance from station: SW 32mi, 52km
Updated: Sat, 18-Nov-2017 11:52am EST
Overcast
Overcast
 Wind from S
Wind: S 13 mph , 20 km/h, Gust: 21 mph , 33 km/h
Temperature: 55°F , 13°C
Dew Point: 39°F , 4°C
Humidity: 55%
Barometer: 29.76 inHg , 1007.8 hPa
Clouds: Overcast
Visibility: 10 miles , 16 km
Cloud details: Mostly Cloudy 15000 ft
Overcast 25000 ft
2017/11/18 16:52 KDCA 181652Z 18011G18KT 10SM BKN150 OVC250 13/04 A2976 RMK AO2 PRESFR SLP076 T01280039
 
KFDK - Frederick Municipal Airport, Maryland
Distance from station: WNW 38mi, 61km
Updated: Sat, 18-Nov-2017 11:47am EST
Overcast
Overcast
 Wind from varies
Wind: varies 5 mph , 7 km/h
Temperature: 43°F , 6°C
Wind Chill: 40°F , 4°C
Dew Point: 43°F , 6°C
Humidity: 100%
Barometer: 29.79 inHg , 1008.8 hPa
Clouds: Overcast
Visibility: 10 miles , 16 km
Cloud details: Partly Cloudy 4100 ft
Partly Cloudy 6000 ft
Overcast 11000 ft
2017/11/18 16:47 KFDK 181647Z VRB04KT 10SM SCT041 SCT060 OVC110 06/06 A2979
KDAA - Fort Belvoir/Davison AAF, Virginia
Distance from station: SW 44mi, 71km
Updated: Sat, 18-Nov-2017 11:56am EST
Few Clouds
Few Clouds
 Wind from S
Wind: S 13 mph , 20 km/h, Gust: 18 mph , 30 km/h
Temperature: 55°F , 13°C
Dew Point: 37°F , 3°C
Humidity: 51%
Barometer: 29.74 inHg , 1007.1 hPa
Clouds: Few Clouds
Visibility: 10 miles , 16 km
Cloud details: Few Clouds 15000 ft
2017/11/18 16:56 KDAA 181656Z AUTO 18011G16KT 10SM FEW150 13/03 A2974 RMK AO2 PRESFR SLP074 T01320027 $
KESN - Easton/Newnam Field Airport, Maryland
Distance from station: SE 45mi, 73km
Updated: Sat, 18-Nov-2017 11:50am EST
Partly Cloudy
Partly Cloudy
 Wind from SSW
Wind: SSW 14 mph , 22 km/h, Gust: 18 mph , 30 km/h
Temperature: 57°F , 14°C
Dew Point: 36°F , 2°C
Humidity: 44%
Barometer: 29.84 inHg , 1010.5 hPa
Clouds: Partly Cloudy
Visibility: 10 miles , 16 km
Cloud details: Partly Cloudy 8000 ft
2017/11/18 16:50 KESN 181650Z 20012G16KT 10SM SCT080 14/02 A2984
 
KIAD - Wash DC/Dulles Intl, Virginia
Distance from station: WSW 45mi, 73km
Updated: Sat, 18-Nov-2017 11:52am EST
Mostly Cloudy
Mostly Cloudy
 Wind from S
Wind: S 14 mph , 22 km/h
Temperature: 55°F , 13°C
Dew Point: 37°F , 3°C
Humidity: 51%
Barometer: 29.73 inHg , 1006.8 hPa
Clouds: Mostly Cloudy
Visibility: 10 miles , 16 km
Cloud details: Partly Cloudy 9000 ft
Mostly Cloudy 11000 ft
Mostly Cloudy 20000 ft
2017/11/18 16:52 KIAD 181652Z 19012KT 10SM SCT090 BKN110 BKN200 13/03 A2973 RMK AO2 PRESFR SLP068 T01280033
KJYO - Leesburg/Godfrey Field, Virginia
Distance from station: WSW 48mi, 77km
Updated: Sat, 18-Nov-2017 12:15pm EST
Overcast
Overcast
 Wind from S
Wind: S 9 mph , 15 km/h
Temperature: 54°F , 12°C
Dew Point: 39°F , 4°C
Humidity: 58%
Barometer: 29.71 inHg , 1006.1 hPa
Clouds: Overcast
Visibility: 10 miles , 16 km
Cloud details: Overcast 11000 ft
2017/11/18 17:15 KJYO 181715Z AUTO 19008KT 10SM OVC110 12/04 A2971 RMK AO2
KTHV - York Airport, Pennsylvania
Distance from station: NNW 48mi, 77km
Updated: Sat, 18-Nov-2017 12:12pm EST
Heavy rain, Mist, Overcast
Heavy rain, Mist, Overcast
 Wind from SE
Wind: SE 5 mph , 7 km/h
Temperature: 39°F , 4°C
Wind Chill: 35°F , 2°C
Dew Point: 39°F , 4°C
Humidity: 100%
Barometer: 29.75 inHg , 1007.5 hPa
Summary: Heavy rain, Mist
Clouds: Overcast
Visibility: 1 1/4 miles , 2 km
Cloud details: Mostly Cloudy 5000 ft
Overcast 7000 ft
2017/11/18 17:12 KTHV 181712Z AUTO 14004KT 1 1/4SM +RA BR BKN050 OVC070 04/04 A2975 RMK AO2 P0009 T00440044
 
KRSP - Naval Support Fac Thurmont, Maryland, USA
Distance from station: NW 50mi, 81km
Updated: Sat, 18-Nov-2017 11:54am EST
Light rain, Mist, Overcast
Light rain, Mist, Overcast
 Wind from S
Wind: S 9 mph , 15 km/h
Temperature: 36°F , 2°C
Wind Chill: 29°F , -2°C
Dew Point: 36°F , 2°C
Humidity: 100%
Barometer: 29.70 inHg , 1005.8 hPa
Summary: Light rain, Mist
Clouds: Overcast
Visibility: 5 miles , 8 km
Cloud details: Overcast 4800 ft
2017/11/18 16:54 KRSP 181654Z AUTO 18008KT 5SM -RA BR OVC048 02/02 A2970 RMK AO2 SLP075 P0004 T00220017 $
KRYT - Fountain Dale Airport, Pennsylvania
Distance from station: NW 52mi, 84km
Updated: Mon, 13-Nov-2017 7:53am EST
NOT Current
Mist, Overcast
Mist, Overcast
 Wind from calm
Wind: Calm
Temperature: 37°F , 3°C
Dew Point: 34°F , 1°C
Humidity: 87%
Barometer: 30.31 inHg , 1026.4 hPa
Summary: Mist
Clouds: Overcast
Visibility: 5 miles , 8 km
Cloud details: Overcast 700 ft
2017/11/13 12:53 KRYT 131253Z AUTO 00000KT 5SM BR OVC007 03/01 A3031 RMK AO2 SLP275 T00280011 TSNO $
KHEF - Manassas Municipal Airport, Virginia
Distance from station: SW 57mi, 91km
Updated: Sat, 18-Nov-2017 11:56am EST
Clear
Clear
 Wind from SW
Wind: SW 15 mph , 24 km/h, Gust: 26 mph , 43 km/h
Temperature: 55°F , 13°C
Dew Point: 37°F , 3°C
Humidity: 51%
Barometer: 29.74 inHg , 1007.1 hPa
Clouds: Clear
Visibility: 10 miles , 16 km
2017/11/18 16:56 KHEF 181656Z 22013G23KT 10SM CLR 13/03 A2974 RMK AO2 PRESFR SLP081 T01280028 PNO $
 
KNYG - Quantico Marine Corps Air Fac, Virginia
Distance from station: SSW 60mi, 96km
Updated: Fri, 17-Nov-2017 8:56pm EST
NOT Current
Clear
Clear
 Wind from WNW
Wind: WNW 7 mph , 11 km/h
Temperature: 37°F , 3°C
Wind Chill: 32°F , 0°C
Dew Point: 34°F , 1°C
Humidity: 87%
Barometer: 30.14 inHg , 1020.7 hPa
Clouds: Clear
2017/11/18 01:56 KNYG 180156Z AUTO 30006KT CLR 03/01 A3014 RMK AO2 SLP207 T00330011 $
KCGE - Cambridge-Dorchester Reg Airport, Maryland
Distance from station: SE 60mi, 97km
Updated: Sat, 18-Nov-2017 12:05pm EST
Clear
Clear
 Wind from S
Wind: S 16 mph , 26 km/h, Gust: 26 mph , 43 km/h
Temperature: 54°F , 12°C
Dew Point: 41°F , 5°C
Humidity: 63%
Barometer: 29.80 inHg , 1009.1 hPa
Clouds: Clear
Visibility: 10 miles , 16 km
2017/11/18 17:05 KCGE 181705Z AUTO 19014G23KT 10SM CLR 12/05 A2980 RMK A01
K2W6 - St Marys Co Reg Airport, Maryland
Distance from station: SSE 64mi, 103km
Updated: Sat, 18-Nov-2017 12:06pm EST
Clear
Clear
 Wind from S
Wind: S 15 mph , 24 km/h, Gust: 24 mph , 39 km/h
Temperature: 57°F , 14°C
Dew Point: 36°F , 2°C
Humidity: 44%
Barometer: 29.80 inHg , 1009.1 hPa
Clouds: Clear
Visibility: 10 miles , 16 km
2017/11/18 17:06 K2W6 181706Z AUTO 18013G21KT 10SM CLR 14/02 A2980 RMK AO1
 
KHGR - Hagerstown Reg Airport, Maryland
Distance from station: WNW 64mi, 103km
Updated: Sat, 18-Nov-2017 11:53am EST
Rain, Mist, Overcast
Rain, Mist, Overcast
 Wind from NNW
Wind: NNW 3 mph , 6 km/h
Temperature: 37°F , 3°C
Dew Point: 37°F , 3°C
Humidity: 100%
Barometer: 29.74 inHg , 1007.1 hPa
Summary: Rain, Mist
Clouds: Overcast
Visibility: 1 mile , 2 km
Cloud details: Overcast 5500 ft
2017/11/18 16:53 KHGR 181653Z 34003KT 1SM RA BR OVC055 03/03 A2974 RMK AO2 SLP084 P0020 T00330028
KLNS - Lancaster Airport, Pennsylvania
Distance from station: NNE 64mi, 104km
Updated: Sat, 18-Nov-2017 12:00pm EST
Rain, Mist, Overcast
Rain, Mist, Overcast
 Wind from ESE
Wind: ESE 5 mph , 7 km/h
Temperature: 43°F , 6°C
Wind Chill: 40°F , 4°C
Dew Point: 41°F , 5°C
Humidity: 93%
Barometer: 29.76 inHg , 1007.8 hPa
Summary: Rain, Mist
Clouds: Overcast
Visibility: 3 miles , 5 km
Cloud details: Few Clouds 5000 ft
Mostly Cloudy 6000 ft
Overcast 9000 ft
2017/11/18 17:00 KLNS 181700Z 11004KT 3SM RA BR FEW050 BKN060 OVC090 06/05 A2976 RMK AO2 P0002 T00610050
KILG - New Castle Airport, Wilmington, Delaware
Distance from station: ENE 66mi, 106km
Updated: Sat, 18-Nov-2017 11:51am EST
Light rain, Overcast
Light rain, Overcast
 Wind from SSE
Wind: SSE 10 mph , 17 km/h
Temperature: 50°F , 10°C
Wind Chill: 46°F , 8°C
Dew Point: 39°F , 4°C
Humidity: 67%
Barometer: 29.81 inHg , 1009.5 hPa
Summary: Light Rain
Clouds: Overcast
Visibility: 10 miles , 16 km
Cloud details: Few Clouds 8000 ft
Overcast 10000 ft
2017/11/18 16:51 KILG 181651Z 16009KT 10SM -RA FEW080 OVC100 10/04 A2981 RMK AO2 RAB38 PRESFR SLP095 P0000 T01000039
 
KDOV - Dover Air Force Base, Delaware
Distance from station: E 66mi, 107km
Updated: Sat, 18-Nov-2017 11:56am EST
Few Clouds
Few Clouds
 Wind from S
Wind: S 14 mph , 22 km/h
Temperature: 54°F , 12°C
Dew Point: 52°F , 11°C
Humidity: 94%
Barometer: 29.81 inHg , 1009.5 hPa
Clouds: Few Clouds
Visibility: 10 miles , 16 km
Cloud details: Few Clouds 12000 ft
2017/11/18 16:56 KDOV 181656Z AUTO 17012KT 10SM FEW120 12/11 A2981 RMK AO2 SLP098 T01220114 $
KMDT - Harrisburg Intl Airport, Middletown, Pennsylvania
Distance from station: N 67mi, 107km
Updated: Sat, 18-Nov-2017 11:56am EST
Light rain, Mist, Overcast
Light rain, Mist, Overcast
 Wind from calm
Wind: Calm
Temperature: 41°F , 5°C
Dew Point: 39°F , 4°C
Humidity: 93%
Barometer: 29.76 inHg , 1007.8 hPa
Summary: Light rain, Mist
Clouds: Overcast
Visibility: 2 1/2 miles , 4 km
Cloud details: Mostly Cloudy 5000 ft
Overcast 7000 ft
2017/11/18 16:56 KMDT 181656Z 00000KT 2 1/2SM -RA BR BKN050 OVC070 05/04 A2976 RMK AO2 SLP079 P0015 T00500039
KMQS - Chester Co Carlson Airport, Coatesville, Pennsylvania
Distance from station: NE 68mi, 109km
Updated: Sat, 18-Nov-2017 12:15pm EST
Light rain, Mostly cloudy
Light rain, Mostly cloudy
 Wind from SSE
Wind: SSE 6 mph , 9 km/h
Temperature: 43°F , 6°C
Wind Chill: 39°F , 4°C
Dew Point: 39°F , 4°C
Humidity: 87%
Barometer: 29.77 inHg , 1008.1 hPa
Summary: Light Rain
Clouds: Mostly Cloudy
Visibility: 3 miles , 5 km
Cloud details: Few Clouds 2000 ft
Partly Cloudy 3700 ft
Mostly Cloudy 4600 ft
2017/11/18 17:15 KMQS 181715Z AUTO 15005KT 3SM -RA FEW020 SCT037 BKN046 06/04 A2977 RMK AO2
 
KCXY - Capital City Airport, Harrisburg, Pennsylvania
Distance from station: N 68mi, 110km
Updated: Sat, 18-Nov-2017 11:56am EST
Rain, Mist, Overcast
Rain, Mist, Overcast
 Wind from calm
Wind: Calm
Temperature: 39°F , 4°C
Dew Point: 37°F , 3°C
Humidity: 93%
Barometer: 29.77 inHg , 1008.1 hPa
Summary: Rain, Mist
Clouds: Overcast
Visibility: 2 miles , 3 km
Cloud details: Few Clouds 500 ft
Mostly Cloudy 4900 ft
Overcast 5500 ft
2017/11/18 16:56 KCXY 181656Z 00000KT 2SM RA BR FEW005 BKN049 OVC055 04/03 A2977 RMK AO2 SLP085 P0011 T00440028
KNHK - Patuxent River NAS, Maryland
Distance from station: SE 69mi, 111km
Updated: Sat, 18-Nov-2017 11:52am EST
Mostly Cloudy
Mostly Cloudy
 Wind from SSW
Wind: SSW 12 mph , 19 km/h
Temperature: 57°F , 14°C
Dew Point: 39°F , 4°C
Humidity: 51%
Barometer: 29.80 inHg , 1009.1 hPa
Clouds: Mostly Cloudy
Visibility: 10 miles , 16 km
Cloud details: Few Clouds 15000 ft
Mostly Cloudy 22000 ft
Mostly Cloudy 28000 ft
2017/11/18 16:52 KNHK 181652Z 20010KT 10SM FEW150 BKN220 BKN280 14/04 A2980 RMK AO2 SLP090 T01390039
KMRB - Eastern WV Reg Airport/Shepherd Field, Martinsburg, West Virginia
Distance from station: W 70mi, 112km
Updated: Sat, 18-Nov-2017 11:53am EST
Light rain, Mist, Overcast
Light rain, Mist, Overcast
 Wind from N
Wind: N 5 mph , 7 km/h
Temperature: 39°F , 4°C
Wind Chill: 35°F , 2°C
Dew Point: 36°F , 2°C
Humidity: 87%
Barometer: 29.71 inHg , 1006.1 hPa
Summary: Light rain, Mist
Clouds: Overcast
Visibility: 5 miles , 8 km
Cloud details: Mostly Cloudy 9500 ft
Overcast 11000 ft
2017/11/18 16:53 KMRB 181653Z 01004KT 5SM -RA BR BKN095 OVC110 04/02 A2971 RMK AO2 RAB47 SLP066 P0000 T00390022 $
 
KHWY - Warrenton-Fauquier Airport, Warrenton, Virginia
Distance from station: SW 71mi, 114km
Updated: Thu, 09-Nov-2017 1:55pm EST
NOT Current
Haze, Overcast
Haze, Overcast
 Wind from calm
Wind: Calm
Temperature: 52°F , 11°C
Dew Point: 45°F , 7°C
Humidity: 77%
Barometer: 30.06 inHg , 1017.9 hPa
Summary: Haze
Clouds: Overcast
Visibility: 5 miles , 8 km
Cloud details: Overcast 800 ft
2017/11/09 18:55 KHWY 091855Z AUTO 00000KT 5SM HZ OVC008 11/07 A3006 RMK AO2 T01060073
KRMN - Stafford Regional Airport, Virginia
Distance from station: SW 71mi, 114km
Updated: Sat, 18-Nov-2017 12:15pm EST
Clear
Clear
 Wind from S
Wind: S 14 mph , 22 km/h, Gust: 24 mph , 39 km/h
Temperature: 57°F , 14°C
Dew Point: 37°F , 3°C
Humidity: 48%
Barometer: 29.78 inHg , 1008.5 hPa
Clouds: Clear
Visibility: 10 miles , 16 km
2017/11/18 17:15 KRMN 181715Z AUTO 19012G21KT 160V230 10SM CLR 14/03 A2978 RMK AO2 T01360028
KNUI - Webster Naval, St Inigoes, Maryland
Distance from station: S 76mi, 123km
Updated: Sat, 18-Nov-2017 7:53am EST
NOT Current
Clear
Clear
 Wind from S
Wind: S 13 mph , 20 km/h, Gust: 21 mph , 33 km/h
Temperature: 45°F , 7°C
Wind Chill: 39°F , 4°C
Dew Point: 36°F , 2°C
Humidity: 71%
Barometer: 29.97 inHg , 1014.9 hPa
Clouds: Clear
Visibility: 9 miles , 14 km
2017/11/18 12:53 KNUI 181253Z AUTO 18011G18KT 9SM CLR 07/02 A2997 RMK AO2 SLP147 T00720022
 
KEZF - Fredericksburg/Shan, Virginia
Distance from station: SSW 78mi, 126km
Updated: Sat, 18-Nov-2017 12:15pm EST
Clear
Clear
 Wind from S
Wind: S 21 mph , 33 km/h, Gust: 25 mph , 41 km/h
Temperature: 57°F , 14°C
Dew Point: 39°F , 4°C
Humidity: 51%
Barometer: 29.75 inHg , 1007.5 hPa
Clouds: Clear
Visibility: 10 miles , 16 km
2017/11/18 17:15 KEZF 181715Z AUTO 19018G22KT 10SM CLR 14/04 A2975 RMK AO2 T01440042
KOKV - Winchester Regional Airport, Virginia
Distance from station: W 78mi, 126km
Updated: Sat, 18-Nov-2017 12:15pm EST
Light drizzle, Overcast
Light drizzle, Overcast
 Wind from N
Wind: N 3 mph , 6 km/h
Temperature: 41°F , 5°C
Dew Point: 34°F , 1°C
Humidity: 76%
Barometer: 29.68 inHg , 1005.1 hPa
Summary: Light Drizzle
Clouds: Overcast
Visibility: 10 miles , 16 km
Cloud details: Partly Cloudy 4300 ft
Partly Cloudy 6000 ft
Overcast 11000 ft
2017/11/18 17:15 KOKV 181715Z AUTO 01003KT 10SM -DZ SCT043 SCT060 OVC110 05/01 A2968 RMK AO2
KCJR - Culpeper Regional Airport, Virginia
Distance from station: SW 79mi, 128km
Updated: Sat, 18-Nov-2017 12:15pm EST
Clear
Clear
 Wind from SSW
Wind: SSW 16 mph , 26 km/h, Gust: 23 mph , 37 km/h
Temperature: 57°F , 14°C
Dew Point: 36°F , 2°C
Humidity: 44%
Barometer: 29.72 inHg , 1006.4 hPa
Clouds: Clear
Visibility: 10 miles , 16 km
2017/11/18 17:15 KCJR 181715Z AUTO 20014G20KT 10SM CLR 14/02 A2972 RMK AO2 T01430020